Time,TemperatureF,DewpointF,PressureIn,WindDirection,WindDirectionDegrees,WindSpeedMPH,WindSpeedGustMPH,Humidity,HourlyPrecipIn,Conditions,Clouds,dailyrainin,SolarRadiationWatts/m^2,SoftwareType,DateUTC
2013-08-05 00:02:00,70.0,50.0,-100.00,SSE,149,6.0,8.0,49,0.00,,,0.00,0.000000,,2013-08-05 07:02:00,
2013-08-05 00:33:00,66.0,49.0,-100.00,SSE,158,6.0,8.0,55,0.00,,,0.00,0.000000,,2013-08-05 07:33:00,
2013-08-05 00:43:00,66.0,49.0,-100.00,SSE,158,6.0,8.0,55,0.00,,,0.00,0.000000,,2013-08-05 07:43:00,
2013-08-05 00:53:00,66.0,49.0,-100.00,SSE,158,6.0,8.0,55,0.00,,,0.00,0.000000,,2013-08-05 07:53:00,
2013-08-05 01:01:00,66.0,49.0,-100.00,SSE,158,6.0,8.0,55,0.00,,,0.00,0.000000,,2013-08-05 08:01:00,
2013-08-05 01:34:00,65.0,49.0,-100.00,SE,131,7.0,10.0,57,0.00,,,0.00,0.000000,,2013-08-05 08:34:00,
2013-08-05 01:54:00,65.0,49.0,-100.00,SE,131,7.0,10.0,57,0.00,,,0.00,0.000000,,2013-08-05 08:54:00,
2013-08-05 02:03:00,65.0,49.0,-100.00,SE,131,7.0,10.0,57,0.00,,,0.00,0.000000,,2013-08-05 09:03:00,
2013-08-05 02:42:00,62.0,48.0,-100.00,ESE,122,5.0,9.0,61,0.00,,,0.00,0.000000,,2013-08-05 09:42:00,
2013-08-05 02:48:00,62.0,48.0,-100.00,ESE,122,5.0,9.0,61,0.00,,,0.00,0.000000,,2013-08-05 09:48:00,
2013-08-05 02:53:00,62.0,48.0,-100.00,ESE,122,5.0,9.0,61,0.00,,,0.00,0.000000,,2013-08-05 09:53:00,
2013-08-05 03:36:00,60.0,48.0,-100.00,SE,125,6.0,9.0,65,0.00,,,0.00,0.000000,,2013-08-05 10:36:00,
2013-08-05 03:50:00,60.0,48.0,-100.00,SE,125,6.0,9.0,65,0.00,,,0.00,0.000000,,2013-08-05 10:50:00,
2013-08-05 04:03:00,60.0,48.0,-100.00,SE,125,6.0,9.0,65,0.00,,,0.00,0.000000,,2013-08-05 11:03:00,
2013-08-05 04:52:00,61.0,51.0,-100.00,ESE,117,6.0,9.0,69,0.00,,,0.00,0.000000,,2013-08-05 11:52:00,
2013-08-05 04:58:00,61.0,51.0,-100.00,ESE,117,6.0,9.0,69,0.00,,,0.00,0.000000,,2013-08-05 11:58:00,
2013-08-05 05:34:00,59.0,50.0,-100.00,SE,127,5.0,7.0,72,0.00,,,0.00,0.000000,,2013-08-05 12:34:00,
2013-08-05 06:02:00,59.0,50.0,-100.00,SE,127,5.0,7.0,72,0.00,,,0.00,0.000000,,2013-08-05 13:02:00,
2013-08-05 06:45:00,58.0,50.0,-100.00,SE,139,5.0,7.0,74,0.00,,,0.00,3.000000,,2013-08-05 13:45:00,
2013-08-05 06:54:00,58.0,50.0,-100.00,SE,139,5.0,7.0,74,0.00,,,0.00,3.000000,,2013-08-05 13:54:00,
2013-08-05 07:03:00,58.0,50.0,-100.00,SE,139,5.0,7.0,74,0.00,,,0.00,3.000000,,2013-08-05 14:03:00,
2013-08-05 07:48:00,66.0,52.0,-100.00,ESE,119,2.0,7.0,60,0.00,,,0.00,66.000000,,2013-08-05 14:48:00,
2013-08-05 07:53:00,66.0,52.0,-100.00,ESE,119,2.0,7.0,60,0.00,,,0.00,66.000000,,2013-08-05 14:53:00,
2013-08-05 08:58:00,73.0,54.0,-100.00,NNE,29,2.0,3.0,52,0.00,,,0.00,210.000000,,2013-08-05 15:58:00,
2013-08-05 09:33:00,78.0,54.0,-100.00,NNW,343,3.0,8.0,44,0.00,,,0.00,375.000000,,2013-08-05 16:33:00,
2013-08-05 09:45:00,78.0,54.0,-100.00,NNW,343,3.0,8.0,44,0.00,,,0.00,375.000000,,2013-08-05 16:45:00,
2013-08-05 09:58:00,78.0,54.0,-100.00,NNW,343,3.0,8.0,44,0.00,,,0.00,375.000000,,2013-08-05 16:58:00,
2013-08-05 10:50:00,81.0,53.0,-100.00,NNW,348,5.0,10.0,38,0.00,,,0.00,536.000000,,2013-08-05 17:50:00,
2013-08-05 10:58:00,81.0,53.0,-100.00,NNW,348,5.0,10.0,38,0.00,,,0.00,536.000000,,2013-08-05 17:58:00,
2013-08-05 11:03:00,81.0,53.0,-100.00,NNW,348,5.0,10.0,38,0.00,,,0.00,536.000000,,2013-08-05 18:03:00,
2013-08-05 11:45:00,85.0,53.0,-100.00,North,1,4.0,10.0,33,0.00,,,0.00,676.000000,,2013-08-05 18:45:00,
2013-08-05 11:54:00,85.0,53.0,-100.00,North,1,4.0,10.0,33,0.00,,,0.00,676.000000,,2013-08-05 18:54:00,
2013-08-05 12:03:00,85.0,53.0,-100.00,North,1,4.0,10.0,33,0.00,,,0.00,676.000000,,2013-08-05 19:03:00,
2013-08-05 12:39:00,87.0,52.0,-100.00,SW,219,5.0,13.0,30,0.00,,,0.00,786.000000,,2013-08-05 19:39:00,
2013-08-05 12:53:00,87.0,52.0,-100.00,SW,219,5.0,13.0,30,0.00,,,0.00,786.000000,,2013-08-05 19:53:00,
2013-08-05 13:03:00,87.0,52.0,-100.00,SW,219,5.0,13.0,30,0.00,,,0.00,786.000000,,2013-08-05 20:03:00,
2013-08-05 13:48:00,89.0,49.0,-100.00,South,191,8.0,15.0,25,0.00,,,0.00,860.000000,,2013-08-05 20:48:00,
2013-08-05 14:03:00,89.0,49.0,-100.00,South,191,8.0,15.0,25,0.00,,,0.00,860.000000,,2013-08-05 21:03:00,
2013-08-05 14:34:00,91.0,47.0,-100.00,SSW,195,7.0,15.0,22,0.00,,,0.00,809.000000,,2013-08-05 21:34:00,
2013-08-05 14:48:00,91.0,47.0,-100.00,SSW,195,7.0,15.0,22,0.00,,,0.00,809.000000,,2013-08-05 21:48:00,
2013-08-05 14:53:00,91.0,47.0,-100.00,SSW,195,7.0,15.0,22,0.00,,,0.00,809.000000,,2013-08-05 21:53:00,
2013-08-05 15:38:00,91.0,47.0,-100.00,WSW,243,6.0,17.0,22,0.00,,,0.00,818.000000,,2013-08-05 22:38:00,
2013-08-05 15:44:00,91.0,47.0,-100.00,WSW,243,6.0,17.0,22,0.00,,,0.00,818.000000,,2013-08-05 22:44:00,
2013-08-05 15:53:00,91.0,47.0,-100.00,WSW,243,6.0,17.0,22,0.00,,,0.00,818.000000,,2013-08-05 22:53:00,
2013-08-05 16:02:00,91.0,47.0,-100.00,WSW,243,6.0,17.0,22,0.00,,,0.00,818.000000,,2013-08-05 23:02:00,
2013-08-05 16:46:00,92.0,45.0,-100.00,WSW,247,8.0,15.0,20,0.00,,,0.00,736.000000,,2013-08-05 23:46:00,
2013-08-05 16:59:00,92.0,45.0,-100.00,WSW,247,8.0,15.0,20,0.00,,,0.00,736.000000,,2013-08-05 23:59:00,
2013-08-05 17:45:00,91.0,47.0,-100.00,SSW,209,11.0,18.0,22,0.00,,,0.00,606.000000,,2013-08-06 00:45:00,
2013-08-05 17:57:00,91.0,47.0,-100.00,SSW,209,11.0,18.0,22,0.00,,,0.00,606.000000,,2013-08-06 00:57:00,
2013-08-05 18:42:00,91.0,48.0,-100.00,South,181,8.0,19.0,23,0.00,,,0.00,442.000000,,2013-08-06 01:42:00,
2013-08-05 18:51:00,91.0,48.0,-100.00,South,181,8.0,19.0,23,0.00,,,0.00,442.000000,,2013-08-06 01:51:00,
2013-08-05 19:04:00,91.0,48.0,-100.00,South,181,8.0,19.0,23,0.00,,,0.00,442.000000,,2013-08-06 02:04:00,
2013-08-05 19:33:00,88.0,43.0,-100.00,NW,319,10.0,16.0,21,0.00,,,0.00,240.000000,,2013-08-06 02:33:00,
2013-08-05 19:48:00,88.0,43.0,-100.00,NW,319,10.0,16.0,21,0.00,,,0.00,240.000000,,2013-08-06 02:48:00,
2013-08-05 20:35:00,84.0,43.0,-100.00,NNW,345,11.0,16.0,24,0.00,,,0.00,76.000000,,2013-08-06 03:35:00,
2013-08-05 20:45:00,84.0,43.0,-100.00,NNW,345,11.0,16.0,24,0.00,,,0.00,76.000000,,2013-08-06 03:45:00,
2013-08-05 20:52:00,84.0,43.0,-100.00,NNW,345,11.0,16.0,24,0.00,,,0.00,76.000000,,2013-08-06 03:52:00,
2013-08-05 21:01:00,84.0,43.0,-100.00,NNW,345,11.0,16.0,24,0.00,,,0.00,76.000000,,2013-08-06 04:01:00,
2013-08-05 21:33:00,77.0,39.0,-100.00,SSE,158,3.0,16.0,26,0.00,,,0.00,7.000000,,2013-08-06 04:33:00,
2013-08-05 21:44:00,77.0,39.0,-100.00,SSE,158,3.0,16.0,26,0.00,,,0.00,7.000000,,2013-08-06 04:44:00,
2013-08-05 22:02:00,77.0,39.0,-100.00,SSE,158,3.0,16.0,26,0.00,,,0.00,7.000000,,2013-08-06 05:02:00,
2013-08-05 22:32:00,72.0,40.0,-100.00,East,92,2.0,5.0,31,0.00,,,0.00,0.000000,,2013-08-06 05:32:00,
2013-08-05 22:43:00,72.0,40.0,-100.00,East,92,2.0,5.0,31,0.00,,,0.00,0.000000,,2013-08-06 05:43:00,
2013-08-05 22:53:00,72.0,40.0,-100.00,East,92,2.0,5.0,31,0.00,,,0.00,0.000000,,2013-08-06 05:53:00,
2013-08-05 23:01:00,72.0,40.0,-100.00,East,92,2.0,5.0,31,0.00,,,0.00,0.000000,,2013-08-06 06:01:00,
2013-08-05 23:43:00,67.0,39.0,-100.00,SE,144,6.0,7.0,36,0.00,,,0.00,0.000000,,2013-08-06 06:43:00,
2013-08-05 23:52:00,67.0,39.0,-100.00,SE,144,6.0,7.0,36,0.00,,,0.00,0.000000,,2013-08-06 06:52:00,